Time;durP1;ratioP1;P1;durP2;ratioP2;P2;SDS_P1;SDS_P2;PMS_P1;PMS_P2;Temp;Humidity;BMP_temperature;BMP_pressure;BME280_temperature;BME280_humidity;BME280_pressure;Samples;Min_cycle;Max_cycle;Signal;HPM_P1;HPM_P2
2023/01/10 00:01:37;;;;;;;24.58;6.07;;;8.90;99.90;;;;;;5066312;28;20054;-68
2023/01/10 00:04:03;;;;;;;17.13;2.97;;;9.00;99.90;;;;;;5061474;28;20048;-68
2023/01/10 00:06:28;;;;;;;20.05;3.15;;;9.00;99.90;;;;;;5061563;28;20110;-69
2023/01/10 00:08:56;;;;;;;20.15;3.15;;;9.00;99.90;;;;;;5058508;28;20112;-69
2023/01/10 00:14:13;;;;;;;24.38;2.83;;;9.00;99.90;;;;;;5062026;28;20112;-69
2023/01/10 00:16:41;;;;;;;15.27;2.40;;;9.10;99.90;;;;;;5056511;28;20049;-68
2023/01/10 00:19:09;;;;;;;15.02;2.40;;;9.10;99.90;;;;;;5058862;28;20040;-68
2023/01/10 00:21:35;;;;;;;20.17;4.70;;;9.20;99.90;;;;;;5060110;28;20480;-69
2023/01/10 00:24:22;;;;;;;16.95;3.30;;;9.20;99.90;;;;;;5058771;28;20111;-69
2023/01/10 00:26:50;;;;;;;19.15;3.35;;;9.20;99.90;;;;;;5059316;28;20045;-70
2023/01/10 00:29:21;;;;;;;10.02;2.30;;;9.10;99.90;;;;;;5058499;28;20523;-68
2023/01/10 00:31:47;;;;;;;15.65;3.72;;;9.10;99.90;;;;;;5061163;28;20029;-68
2023/01/10 00:34:13;;;;;;;17.67;3.08;;;9.10;99.90;;;;;;5062620;28;20052;-69
2023/01/10 00:36:41;;;;;;;18.33;3.17;;;9.00;99.90;;;;;;5059906;28;20411;-70
2023/01/10 00:39:07;;;;;;;17.33;3.20;;;9.10;99.90;;;;;;5061260;28;20035;-69
2023/01/10 00:44:17;;;;;;;20.60;3.03;;;9.00;99.90;;;;;;5063955;28;20136;-70
2023/01/10 00:46:43;;;;;;;20.27;3.22;;;9.00;99.90;;;;;;5062183;28;20440;-68
2023/01/10 00:49:10;;;;;;;18.27;3.10;;;9.00;99.90;;;;;;5061855;28;20070;-68
2023/01/10 00:51:36;;;;;;;20.42;4.10;;;9.00;99.90;;;;;;5059752;28;20375;-69
2023/01/10 00:54:02;;;;;;;17.77;2.85;;;9.00;99.90;;;;;;5062354;28;20512;-70
2023/01/10 00:56:28;;;;;;;18.45;2.80;;;9.00;99.90;;;;;;5065946;28;20052;-68
2023/01/10 00:58:54;;;;;;;23.27;3.20;;;9.00;99.90;;;;;;5064655;28;20094;-69
2023/01/10 01:01:26;;;;;;;31.35;3.80;;;9.10;99.90;;;;;;5060922;28;20028;-68
2023/01/10 01:03:53;;;;;;;28.95;3.78;;;9.00;99.90;;;;;;5062253;28;20032;-69
2023/01/10 01:06:19;;;;;;;19.85;3.30;;;9.00;99.90;;;;;;5062244;28;20059;-69
2023/01/10 01:08:45;;;;;;;29.05;7.32;;;9.00;99.90;;;;;;5064207;28;20100;-68
2023/01/10 01:11:10;;;;;;;21.77;3.17;;;9.00;99.90;;;;;;5066364;28;20035;-68
2023/01/10 01:13:36;;;;;;;17.70;3.00;;;9.10;99.90;;;;;;5061365;28;20098;-69
2023/01/10 01:16:02;;;;;;;23.70;3.53;;;9.00;99.90;;;;;;5064031;28;20045;-68
2023/01/10 01:18:27;;;;;;;14.10;3.42;;;9.10;99.90;;;;;;5064319;28;20036;-68
2023/01/10 01:20:55;;;;;;;18.10;2.92;;;9.10;99.90;;;;;;5062529;28;20021;-69
2023/01/10 01:23:22;;;;;;;18.58;2.85;;;9.00;99.90;;;;;;5059927;28;20037;-68
2023/01/10 01:25:52;;;;;;;15.80;2.97;;;9.00;99.90;;;;;;5066075;28;20460;-69
2023/01/10 01:28:17;;;;;;;21.02;3.35;;;9.00;99.90;;;;;;5063304;28;20521;-68
2023/01/10 01:30:43;;;;;;;16.98;3.03;;;9.00;99.90;;;;;;5062186;28;20028;-68
2023/01/10 01:33:09;;;;;;;20.45;3.45;;;9.00;99.90;;;;;;5061905;28;20040;-68
2023/01/10 01:35:34;;;;;;;17.33;3.47;;;9.10;99.90;;;;;;5059538;28;20063;-68
2023/01/10 01:38:00;;;;;;;18.13;3.47;;;9.10;99.90;;;;;;5061165;28;20067;-69
2023/01/10 01:40:25;;;;;;;18.63;3.08;;;9.10;99.90;;;;;;5062334;28;20021;-69
2023/01/10 01:42:54;;;;;;;20.02;3.90;;;9.10;99.90;;;;;;5060482;28;20463;-69
2023/01/10 01:45:22;;;;;;;24.45;4.55;;;9.10;99.90;;;;;;5065108;28;20025;-70
2023/01/10 01:48:00;;;;;;;23.63;3.83;;;9.10;99.90;;;;;;5063978;28;20021;-69
2023/01/10 01:50:43;;;;;;;20.23;2.90;;;9.10;99.90;;;;;;5060216;28;20032;-69
2023/01/10 01:53:15;;;;;;;19.17;3.75;;;9.10;99.90;;;;;;5061844;28;20040;-69
2023/01/10 01:55:43;;;;;;;18.88;3.13;;;9.20;99.90;;;;;;5059897;28;20036;-69
2023/01/10 01:58:14;;;;;;;19.85;5.05;;;9.20;99.90;;;;;;5061740;28;20059;-69
2023/01/10 02:00:40;;;;;;;22.50;3.30;;;9.20;99.90;;;;;;5062168;28;20120;-69
2023/01/10 02:03:06;;;;;;;17.40;3.42;;;9.20;99.90;;;;;;5060310;28;20120;-69
2023/01/10 02:05:34;;;;;;;18.92;3.40;;;9.20;99.90;;;;;;5065631;28;20029;-69
2023/01/10 02:08:01;;;;;;;25.05;3.30;;;9.10;99.90;;;;;;5057640;28;20121;-68
2023/01/10 02:10:51;;;;;;;21.52;3.42;;;9.10;99.90;;;;;;5057531;28;20074;-68
2023/01/10 02:13:20;;;;;;;21.63;3.53;;;9.00;99.90;;;;;;5069944;28;20120;-68
2023/01/10 02:15:46;;;;;;;18.65;3.65;;;9.00;99.90;;;;;;5065490;28;20431;-68
2023/01/10 02:18:12;;;;;;;13.65;2.80;;;9.00;99.90;;;;;;5070098;28;20074;-68
2023/01/10 02:21:06;;;;;;;15.88;2.50;;;9.00;99.90;;;;;;5060877;28;20055;-68
2023/01/10 02:23:56;;;;;;;19.38;3.75;;;8.90;99.90;;;;;;5066014;28;20103;-69
2023/01/10 02:26:47;;;;;;;17.58;3.28;;;8.90;99.90;;;;;;5064099;28;20112;-71
2023/01/10 02:29:51;;;;;;;18.35;3.10;;;8.80;99.90;;;;;;5035112;28;20119;-70
2023/01/10 02:32:35;;;;;;;17.45;2.85;;;8.80;99.90;;;;;;5066829;28;20556;-70
2023/01/10 02:35:16;;;;;;;26.05;4.20;;;8.70;99.90;;;;;;5062078;28;20412;-70
2023/01/10 02:37:48;;;;;;;20.23;3.05;;;8.60;99.90;;;;;;5064793;28;20070;-69
2023/01/10 02:40:28;;;;;;;23.30;3.58;;;8.50;99.90;;;;;;5068879;28;20530;-70
2023/01/10 02:43:04;;;;;;;19.83;3.80;;;8.50;99.90;;;;;;5063904;28;20028;-70
2023/01/10 02:45:39;;;;;;;22.60;4.30;;;8.50;99.90;;;;;;5063576;28;20029;-69
2023/01/10 02:48:05;;;;;;;22.73;3.47;;;8.50;99.90;;;;;;5067026;28;20027;-69
2023/01/10 02:50:43;;;;;;;25.45;4.05;;;8.60;99.90;;;;;;5069234;28;20029;-70
2023/01/10 02:53:10;;;;;;;25.67;4.53;;;8.60;99.90;;;;;;5070120;28;20056;-70
2023/01/10 02:56:18;;;;;;;26.20;3.55;;;8.60;99.90;;;;;;5063961;28;20059;-69
2023/01/10 02:59:20;;;;;;;22.65;3.30;;;8.60;99.90;;;;;;5067652;28;20127;-69
2023/01/10 03:02:27;;;;;;;20.40;4.13;;;8.60;99.90;;;;;;5067986;28;20083;-69
2023/01/10 03:05:03;;;;;;;19.80;3.42;;;8.70;99.90;;;;;;4998525;28;20093;-69
2023/01/10 03:07:41;;;;;;;17.98;2.88;;;8.60;99.90;;;;;;5062602;28;20041;-69
2023/01/10 03:10:13;;;;;;;23.83;3.55;;;8.70;99.90;;;;;;5063294;28;20469;-69
2023/01/10 03:12:48;;;;;;;;;;;8.60;99.90;;;;;;5068583;28;20055;-69
2023/01/10 03:15:17;;;;;;;16.80;2.45;;;8.60;99.90;;;;;;5055996;28;19923;-69
2023/01/10 03:17:46;;;;;;;20.55;3.20;;;8.60;99.90;;;;;;5066577;28;20053;-69
2023/01/10 03:20:11;;;;;;;25.50;4.53;;;8.50;99.90;;;;;;5065168;28;20502;-68
2023/01/10 03:22:39;;;;;;;21.45;3.55;;;8.50;99.90;;;;;;5062784;28;20025;-68
2023/01/10 03:25:09;;;;;;;19.40;3.13;;;8.50;99.90;;;;;;5062783;28;20025;-69
2023/01/10 03:27:43;;;;;;;19.85;2.78;;;8.40;99.90;;;;;;5065565;28;20035;-68
2023/01/10 03:30:20;;;;;;;17.90;3.22;;;8.40;99.90;;;;;;5068073;28;20036;-68
2023/01/10 03:32:47;;;;;;;23.95;3.50;;;8.40;99.90;;;;;;5055596;28;20029;-68
2023/01/10 03:35:14;;;;;;;19.00;4.85;;;8.40;99.90;;;;;;5066104;28;20484;-68
2023/01/10 03:37:56;;;;;;;22.63;3.28;;;8.40;99.90;;;;;;5069427;28;20450;-67
2023/01/10 03:40:29;;;;;;;;;;;8.40;99.90;;;;;;5063625;28;20059;-68
2023/01/10 03:46:03;;;;;;;23.30;3.40;;;8.50;99.90;;;;;;5055390;28;20043;-69
2023/01/10 03:48:38;;;;;;;23.58;3.95;;;8.60;99.90;;;;;;5053233;28;20032;-68
2023/01/10 03:51:06;;;;;;;26.20;3.97;;;8.60;99.90;;;;;;5065465;28;20055;-68
2023/01/10 03:53:33;;;;;;;21.83;3.97;;;8.70;99.90;;;;;;5064593;28;20036;-68
2023/01/10 03:55:59;;;;;;;19.25;3.03;;;8.70;99.90;;;;;;5067486;28;20025;-68
2023/01/10 03:58:27;;;;;;;17.85;3.40;;;8.80;99.90;;;;;;5055504;28;20047;-68
2023/01/10 04:00:52;;;;;;;30.20;3.60;;;8.80;99.90;;;;;;5069290;28;20032;-68
2023/01/10 04:03:18;;;;;;;22.42;3.60;;;8.80;99.90;;;;;;5064029;28;20094;-68
2023/01/10 04:05:44;;;;;;;21.10;3.25;;;8.80;99.90;;;;;;5066056;28;20028;-68
2023/01/10 04:08:10;;;;;;;24.60;3.70;;;8.80;99.90;;;;;;5066314;28;20105;-69
2023/01/10 04:10:36;;;;;;;22.85;2.95;;;8.80;99.90;;;;;;5070015;28;20032;-68
2023/01/10 04:13:02;;;;;;;13.82;3.33;;;8.80;99.90;;;;;;5070701;28;20027;-68
2023/01/10 04:15:28;;;;;;;20.45;3.35;;;8.80;99.90;;;;;;5071952;28;20572;-68
2023/01/10 04:17:55;;;;;;;20.67;3.47;;;8.90;99.90;;;;;;5060075;28;20127;-68
2023/01/10 04:20:21;;;;;;;18.83;3.45;;;8.80;99.90;;;;;;5062719;28;20113;-68
2023/01/10 04:22:48;;;;;;;19.88;2.88;;;8.80;99.90;;;;;;5057869;28;20113;-69
2023/01/10 04:25:14;;;;;;;28.00;3.67;;;8.80;99.90;;;;;;5069508;28;20480;-68
2023/01/10 04:27:40;;;;;;;30.27;5.90;;;8.80;99.90;;;;;;5071578;28;20063;-68
2023/01/10 04:30:07;;;;;;;19.10;4.82;;;8.80;99.90;;;;;;5071728;28;20068;-68
2023/01/10 04:32:32;;;;;;;19.92;3.35;;;8.80;99.90;;;;;;5057539;28;20021;-68
2023/01/10 04:34:58;;;;;;;15.27;2.92;;;8.70;99.90;;;;;;5059596;28;20552;-68
2023/01/10 04:37:23;;;;;;;23.55;3.53;;;8.70;99.90;;;;;;5063269;28;20484;-68
2023/01/10 04:39:49;;;;;;;18.48;3.58;;;8.70;99.90;;;;;;5067732;28;20068;-68
2023/01/10 04:42:16;;;;;;;23.30;3.30;;;8.70;99.90;;;;;;5065721;28;20431;-69
2023/01/10 04:44:41;;;;;;;22.52;4.18;;;8.60;99.90;;;;;;5056932;28;20021;-69
2023/01/10 04:47:07;;;;;;;24.38;3.78;;;8.60;99.90;;;;;;5061706;28;20035;-68
2023/01/10 04:49:33;;;;;;;26.70;3.97;;;8.60;99.90;;;;;;5047597;28;20032;-70
2023/01/10 04:51:58;;;;;;;25.02;5.25;;;8.60;99.90;;;;;;5071496;28;20056;-69
2023/01/10 04:54:24;;;;;;;22.27;3.92;;;8.50;99.90;;;;;;5051142;28;20082;-68
2023/01/10 04:56:50;;;;;;;18.52;3.30;;;8.40;99.90;;;;;;5071168;28;20055;-69
2023/01/10 04:59:15;;;;;;;22.98;4.32;;;8.40;99.90;;;;;;5053107;28;20033;-68
2023/01/10 05:01:41;;;;;;;22.65;3.67;;;8.30;99.90;;;;;;5060163;28;20029;-68
2023/01/10 05:04:07;;;;;;;23.90;4.72;;;8.20;99.90;;;;;;5058790;28;20035;-68
2023/01/10 05:06:33;;;;;;;21.20;3.13;;;8.20;99.90;;;;;;5063023;28;20025;-68
2023/01/10 05:08:59;;;;;;;21.77;3.25;;;8.20;99.90;;;;;;5066077;28;20039;-69
2023/01/10 05:11:24;;;;;;;23.00;3.50;;;8.20;99.90;;;;;;5071715;28;20032;-69
2023/01/10 05:13:50;;;;;;;24.33;3.03;;;8.30;99.90;;;;;;5057558;28;20037;-69
2023/01/10 05:16:16;;;;;;;25.85;3.63;;;8.40;99.90;;;;;;5063114;28;20053;-68
2023/01/10 05:18:41;;;;;;;18.10;3.42;;;8.40;99.90;;;;;;5057006;28;20040;-68
2023/01/10 05:21:10;;;;;;;18.67;3.15;;;8.50;99.90;;;;;;5069984;28;20036;-69
2023/01/10 05:23:36;;;;;;;24.08;3.42;;;8.50;99.90;;;;;;5063066;28;20457;-69
2023/01/10 05:26:28;;;;;;;21.60;3.63;;;8.60;99.90;;;;;;5068306;28;20107;-68
2023/01/10 05:28:54;;;;;;;18.90;3.00;;;8.70;99.90;;;;;;5061096;28;20044;-67
2023/01/10 05:31:19;;;;;;;22.27;3.40;;;8.70;99.90;;;;;;5072631;28;20063;-68
2023/01/10 05:33:47;;;;;;;16.10;3.20;;;8.70;99.90;;;;;;5067302;28;20398;-68
2023/01/10 05:36:12;;;;;;;19.38;3.03;;;8.80;99.90;;;;;;5065511;28;20044;-67
2023/01/10 05:38:38;;;;;;;17.55;2.50;;;8.80;99.90;;;;;;5061043;28;20033;-68
2023/01/10 05:41:04;;;;;;;19.83;3.17;;;8.80;99.90;;;;;;5067955;28;20040;-68
2023/01/10 05:43:29;;;;;;;14.55;2.85;;;8.90;99.90;;;;;;5061237;28;20798;-69
2023/01/10 05:45:55;;;;;;;23.60;4.65;;;8.90;99.90;;;;;;5069509;28;20033;-69
2023/01/10 05:48:21;;;;;;;22.60;3.75;;;8.90;99.90;;;;;;5070028;28;20110;-69
2023/01/10 05:50:49;;;;;;;23.85;3.40;;;9.00;99.90;;;;;;5059152;28;20032;-69
2023/01/10 05:53:14;;;;;;;17.60;2.95;;;9.00;99.90;;;;;;5067072;28;20020;-68
2023/01/10 05:55:40;;;;;;;16.88;3.42;;;9.00;99.90;;;;;;5060412;28;20048;-68
2023/01/10 05:58:06;;;;;;;18.05;2.67;;;9.00;99.90;;;;;;5069694;28;20045;-68
2023/01/10 06:00:31;;;;;;;25.95;4.25;;;9.00;99.90;;;;;;5060135;28;20385;-69
2023/01/10 06:02:57;;;;;;;24.13;4.40;;;9.00;99.90;;;;;;5073079;28;20069;-70
2023/01/10 06:05:23;;;;;;;20.23;3.90;;;9.10;99.90;;;;;;5072699;28;20105;-67
2023/01/10 06:07:49;;;;;;;17.42;3.65;;;9.10;99.90;;;;;;5070276;28;20060;-69
2023/01/10 06:10:15;;;;;;;18.73;3.15;;;9.10;99.90;;;;;;5073266;28;20799;-68
2023/01/10 06:12:41;;;;;;;21.17;3.33;;;9.00;99.90;;;;;;5067416;28;20055;-68
2023/01/10 06:15:08;;;;;;;21.17;4.00;;;9.00;99.90;;;;;;5057308;28;20522;-68
2023/01/10 06:17:34;;;;;;;25.42;3.35;;;9.00;99.90;;;;;;5072512;28;20491;-69
2023/01/10 06:19:59;;;;;;;18.10;3.85;;;9.00;99.90;;;;;;5057863;28;20033;-67
2023/01/10 06:22:26;;;;;;;22.33;3.60;;;9.00;99.90;;;;;;5081063;28;20029;-68
2023/01/10 06:24:53;;;;;;;22.88;3.72;;;9.00;99.90;;;;;;5057637;28;20024;-68
2023/01/10 06:27:18;;;;;;;27.85;3.60;;;9.00;99.90;;;;;;5060742;28;20032;-68
2023/01/10 06:29:44;;;;;;;22.15;3.47;;;9.00;99.90;;;;;;5068741;28;20053;-68
2023/01/10 06:32:09;;;;;;;22.67;3.70;;;8.90;99.90;;;;;;5056343;28;20033;-68
2023/01/10 06:34:35;;;;;;;16.60;2.72;;;8.90;99.90;;;;;;5065907;28;20031;-68
2023/01/10 06:37:00;;;;;;;30.00;4.00;;;8.80;99.90;;;;;;5061038;28;20048;-67
2023/01/10 06:39:26;;;;;;;19.63;3.17;;;8.70;99.90;;;;;;5071499;28;20036;-68
2023/01/10 06:41:52;;;;;;;18.80;3.40;;;8.70;99.90;;;;;;5070057;28;20059;-68
2023/01/10 06:44:17;;;;;;;21.45;3.75;;;8.60;99.90;;;;;;5056226;28;20024;-69
2023/01/10 06:46:43;;;;;;;23.30;3.60;;;8.60;99.90;;;;;;5070621;28;20032;-66
2023/01/10 06:49:08;;;;;;;13.85;2.60;;;8.50;99.90;;;;;;5059709;28;20084;-69
2023/01/10 06:51:34;;;;;;;18.77;3.20;;;8.40;99.90;;;;;;5059289;28;20079;-68
2023/01/10 06:53:59;;;;;;;23.65;3.80;;;8.40;99.90;;;;;;5061527;28;20405;-68
2023/01/10 06:56:25;;;;;;;20.85;3.65;;;8.40;99.90;;;;;;5070186;28;20034;-67
2023/01/10 06:58:50;;;;;;;22.35;4.10;;;8.40;99.90;;;;;;5070681;28;20085;-67
2023/01/10 07:01:18;;;;;;;23.65;3.95;;;8.40;99.90;;;;;;5072235;28;20043;-68
2023/01/10 07:03:44;;;;;;;22.88;3.63;;;8.40;99.90;;;;;;5057193;28;20105;-69
2023/01/10 07:06:10;;;;;;;19.88;3.30;;;8.50;99.90;;;;;;5067550;28;20115;-68
2023/01/10 07:08:44;;;;;;;27.45;4.32;;;8.50;99.90;;;;;;5057146;28;20032;-68
2023/01/10 07:11:11;;;;;;;22.88;4.07;;;8.50;99.90;;;;;;5064124;28;20037;-69
2023/01/10 07:13:38;;;;;;;21.58;3.53;;;8.60;99.90;;;;;;5057924;28;20024;-69
2023/01/10 07:16:05;;;;;;;25.27;3.20;;;8.60;99.90;;;;;;5071499;28;20434;-68
2023/01/10 07:18:32;;;;;;;25.52;4.05;;;8.70;99.90;;;;;;5066675;28;20072;-69
2023/01/10 07:20:57;;;;;;;22.50;3.42;;;8.70;99.90;;;;;;5059088;28;20021;-68
2023/01/10 07:23:23;;;;;;;27.17;3.30;;;8.70;99.90;;;;;;5059672;28;20381;-67
2023/01/10 07:25:49;;;;;;;26.10;4.20;;;8.70;99.90;;;;;;5071296;28;20058;-68
2023/01/10 07:28:15;;;;;;;22.20;3.50;;;8.70;99.90;;;;;;5055059;28;20029;-68
2023/01/10 07:30:40;;;;;;;26.45;3.72;;;8.70;99.90;;;;;;5062316;28;20211;-68
2023/01/10 07:33:06;;;;;;;23.90;3.47;;;8.80;99.90;;;;;;5069628;28;20490;-68
2023/01/10 07:35:32;;;;;;;24.17;4.60;;;8.70;99.90;;;;;;5070508;28;20484;-69
2023/01/10 07:37:58;;;;;;;23.90;3.80;;;8.70;99.90;;;;;;5060352;28;20177;-69
2023/01/10 07:40:24;;;;;;;27.08;4.18;;;8.80;99.90;;;;;;5067879;28;20029;-68
2023/01/10 07:42:55;;;;;;;24.92;3.85;;;8.70;99.90;;;;;;5040216;28;20056;-68
2023/01/10 07:45:21;;;;;;;20.07;4.23;;;8.70;99.90;;;;;;5066898;28;20115;-70
2023/01/10 07:47:47;;;;;;;25.02;3.63;;;8.70;99.90;;;;;;5048249;28;20426;-69
2023/01/10 07:50:12;;;;;;;23.35;3.97;;;8.70;99.90;;;;;;5067674;28;20035;-68
2023/01/10 07:52:38;;;;;;;25.13;4.35;;;8.60;99.90;;;;;;5059067;28;20054;-68
2023/01/10 07:55:04;;;;;;;29.05;4.20;;;8.60;99.90;;;;;;5067525;28;20028;-68
2023/01/10 07:57:31;;;;;;;27.40;5.55;;;8.50;99.90;;;;;;5059207;28;20048;-69
2023/01/10 07:59:57;;;;;;;33.72;4.20;;;8.50;99.90;;;;;;5061590;28;20514;-68
2023/01/10 08:02:22;;;;;;;22.25;3.78;;;8.50;99.90;;;;;;5056409;28;20096;-68
2023/01/10 08:04:48;;;;;;;30.33;4.72;;;8.50;99.90;;;;;;5054951;28;20068;-69
2023/01/10 08:07:14;;;;;;;23.63;4.50;;;8.40;99.90;;;;;;5046142;28;20211;-68
2023/01/10 08:09:39;;;;;;;28.17;4.35;;;8.40;99.90;;;;;;5069715;28;20396;-67
2023/01/10 08:12:05;;;;;;;22.50;3.60;;;8.40;99.90;;;;;;5058748;28;20400;-68
2023/01/10 08:14:31;;;;;;;17.52;2.78;;;8.40;99.90;;;;;;5066833;28;20033;-68
2023/01/10 08:16:56;;;;;;;24.90;3.47;;;8.40;99.90;;;;;;5038155;28;20044;-67
2023/01/10 08:19:22;;;;;;;19.52;3.50;;;8.40;99.90;;;;;;5042147;28;20035;-69
2023/01/10 08:21:47;;;;;;;23.20;3.65;;;8.40;99.90;;;;;;5038148;28;20128;-68
2023/01/10 08:24:13;;;;;;;25.83;3.28;;;8.50;99.90;;;;;;5049657;28;20115;-68
2023/01/10 08:26:38;;;;;;;20.08;3.05;;;8.50;99.90;;;;;;5045129;28;20028;-68
2023/01/10 08:29:04;;;;;;;23.92;3.40;;;8.50;99.90;;;;;;5042758;28;20100;-68
2023/01/10 08:31:29;;;;;;;19.92;2.85;;;8.50;99.90;;;;;;5042582;28;20041;-68
2023/01/10 08:33:55;;;;;;;17.00;3.65;;;8.60;99.90;;;;;;5035232;28;20068;-68
2023/01/10 08:36:21;;;;;;;21.20;4.45;;;8.60;99.90;;;;;;5049265;28;20088;-68
2023/01/10 08:38:47;;;;;;;15.77;3.72;;;8.60;99.90;;;;;;5049547;28;20495;-68
2023/01/10 08:41:13;;;;;;;33.38;4.30;;;8.70;99.90;;;;;;5050340;28;20036;-68
2023/01/10 08:43:39;;;;;;;27.00;4.15;;;8.70;99.90;;;;;;5043631;28;20033;-68
2023/01/10 08:46:05;;;;;;;23.30;3.00;;;8.70;99.90;;;;;;5049641;28;20021;-68
2023/01/10 08:48:30;;;;;;;27.33;4.25;;;8.80;99.90;;;;;;5035233;28;20374;-68
2023/01/10 08:50:56;;;;;;;24.73;4.00;;;8.80;99.90;;;;;;5043555;28;20025;-68
2023/01/10 08:53:22;;;;;;;27.45;4.90;;;8.80;99.90;;;;;;5035147;28;20033;-68
2023/01/10 08:55:48;;;;;;;19.35;3.97;;;8.70;99.90;;;;;;5062903;28;20079;-68
2023/01/10 08:58:14;;;;;;;17.60;3.65;;;8.60;99.90;;;;;;5051454;28;20040;-67
2023/01/10 09:00:39;;;;;;;17.33;4.22;;;8.60;99.90;;;;;;5053777;28;20527;-68
2023/01/10 09:03:06;;;;;;;20.77;3.90;;;8.60;99.90;;;;;;5053171;28;20056;-67
2023/01/10 09:05:32;;;;;;;27.55;3.72;;;8.60;99.90;;;;;;5052284;28;20108;-67
2023/01/10 09:08:01;;;;;;;19.20;3.92;;;8.60;99.90;;;;;;5054446;28;20136;-68
2023/01/10 09:10:28;;;;;;;19.08;2.85;;;8.60;99.90;;;;;;5048395;28;20032;-68
2023/01/10 09:13:09;;;;;;;13.75;3.70;;;8.60;99.90;;;;;;5044998;28;20036;-70
2023/01/10 09:15:37;;;;;;;15.25;2.20;;;8.60;99.90;;;;;;5050454;28;20515;-67
2023/01/10 09:18:05;;;;;;;16.13;3.08;;;8.60;99.90;;;;;;5048950;28;20144;-68
2023/01/10 09:20:32;;;;;;;17.27;3.90;;;8.50;99.90;;;;;;5053461;28;20053;-68
2023/01/10 09:22:58;;;;;;;25.15;3.63;;;8.50;99.90;;;;;;5043860;28;20526;-68
2023/01/10 09:25:24;;;;;;;29.70;4.18;;;8.50;99.90;;;;;;5044966;28;20082;-69
2023/01/10 09:27:58;;;;;;;18.20;3.55;;;8.50;99.90;;;;;;5051625;28;20032;-68
2023/01/10 09:30:24;;;;;;;23.85;4.05;;;8.50;99.90;;;;;;5054272;28;20514;-68
2023/01/10 09:32:54;;;;;;;20.73;4.25;;;8.50;99.90;;;;;;5052154;28;20021;-68
2023/01/10 09:35:20;;;;;;;21.10;3.58;;;8.50;99.90;;;;;;5042930;28;20029;-68
2023/01/10 09:37:45;;;;;;;15.73;3.25;;;8.40;99.90;;;;;;5047224;28;20040;-68
2023/01/10 09:40:24;;;;;;;21.55;4.03;;;8.40;99.90;;;;;;5048428;28;20090;-68
2023/01/10 09:43:03;;;;;;;22.85;4.22;;;8.40;99.90;;;;;;5040483;28;20067;-68
2023/01/10 09:46:01;;;;;;;24.80;5.40;;;8.40;99.90;;;;;;5046171;28;20033;-68
2023/01/10 09:48:54;;;;;;;25.40;4.03;;;8.40;99.90;;;;;;5042063;28;20053;-68
2023/01/10 09:51:34;;;;;;;15.57;2.65;;;8.40;99.90;;;;;;5042040;28;20037;-68
2023/01/10 09:54:04;;;;;;;18.83;3.50;;;8.40;99.90;;;;;;5040500;28;20526;-68
2023/01/10 09:56:31;;;;;;;13.07;3.15;;;8.30;99.90;;;;;;5052054;28;20025;-68
2023/01/10 09:58:59;;;;;;;24.75;3.75;;;8.30;99.90;;;;;;5052795;28;20119;-68
2023/01/10 10:01:35;;;;;;;13.90;2.65;;;8.20;99.90;;;;;;5047121;28;20032;-68
2023/01/10 10:04:24;;;;;;;13.18;3.70;;;8.20;99.90;;;;;;5037191;28;20029;-68
2023/01/10 10:06:51;;;;;;;24.75;3.78;;;8.10;99.90;;;;;;5063115;28;20024;-68
2023/01/10 10:09:24;;;;;;;25.15;6.13;;;8.20;99.90;;;;;;5041403;28;20086;-67
2023/01/10 10:12:12;;;;;;;17.88;4.00;;;8.10;99.90;;;;;;5052896;28;20478;-68
2023/01/10 10:14:53;;;;;;;20.05;4.03;;;8.00;99.90;;;;;;5048562;28;20030;-68
2023/01/10 10:17:46;;;;;;;19.73;3.50;;;8.10;99.90;;;;;;5068674;28;20483;-68
2023/01/10 10:20:34;;;;;;;17.77;3.33;;;8.00;99.90;;;;;;5070714;28;20137;-68
2023/01/10 10:23:27;;;;;;;23.30;4.15;;;8.00;99.90;;;;;;5071327;28;20029;-67
2023/01/10 10:26:17;;;;;;;19.92;3.45;;;8.00;99.90;;;;;;5068152;28;20035;-68
2023/01/10 10:29:05;;;;;;;22.15;4.90;;;7.90;99.90;;;;;;5059276;28;20028;-68
2023/01/10 10:31:54;;;;;;;14.52;4.20;;;7.90;99.90;;;;;;5065388;28;20024;-68
2023/01/10 10:34:26;;;;;;;14.60;2.58;;;7.90;99.90;;;;;;5071277;28;20040;-68
2023/01/10 10:37:00;;;;;;;28.63;4.03;;;7.90;99.90;;;;;;5064184;28;20124;-68
2023/01/10 10:39:38;;;;;;;18.85;4.07;;;7.90;99.90;;;;;;5060598;28;20036;-68
2023/01/10 10:42:10;;;;;;;11.15;3.45;;;7.90;99.90;;;;;;5070401;28;20032;-69
2023/01/10 10:45:01;;;;;;;14.48;3.13;;;8.00;99.90;;;;;;5070208;28;20031;-68
2023/01/10 10:47:31;;;;;;;12.93;3.28;;;7.90;99.90;;;;;;5058592;28;20047;-68
2023/01/10 10:50:37;;;;;;;13.32;3.15;;;7.90;99.90;;;;;;5059185;28;20028;-69
2023/01/10 10:53:04;;;;;;;23.20;4.10;;;7.90;99.90;;;;;;5051859;28;20082;-69
2023/01/10 10:55:34;;;;;;;20.95;4.78;;;8.00;99.90;;;;;;5055997;28;20058;-69
2023/01/10 10:58:02;;;;;;;20.77;4.28;;;8.00;99.90;;;;;;5056769;28;20086;-68
2023/01/10 11:00:29;;;;;;;18.90;3.40;;;8.00;99.90;;;;;;5052392;28;20060;-70
2023/01/10 11:03:00;;;;;;;18.67;3.67;;;8.00;99.90;;;;;;5053451;28;20039;-68
2023/01/10 11:05:34;;;;;;;15.90;3.70;;;8.10;99.90;;;;;;5065701;28;20029;-68
2023/01/10 11:08:12;;;;;;;23.60;4.13;;;8.10;99.90;;;;;;5056395;28;20038;-68
2023/01/10 11:10:39;;;;;;;20.90;4.25;;;8.00;99.90;;;;;;5062749;28;20020;-68
2023/01/10 11:13:14;;;;;;;14.95;3.10;;;8.00;99.90;;;;;;5056166;28;20115;-69
2023/01/10 11:15:45;;;;;;;20.15;4.20;;;8.00;99.90;;;;;;5072683;28;20048;-68
2023/01/10 11:18:19;;;;;;;19.08;5.00;;;8.00;99.90;;;;;;5066256;28;20025;-68
2023/01/10 11:20:59;;;;;;;18.67;3.75;;;8.00;99.90;;;;;;5059215;28;20042;-69
2023/01/10 11:23:50;;;;;;;20.30;3.92;;;8.00;99.90;;;;;;5069254;28;20047;-69
2023/01/10 11:26:29;;;;;;;18.90;3.90;;;7.90;99.90;;;;;;5064994;28;20028;-70
2023/01/10 11:29:23;;;;;;;21.42;3.58;;;7.90;99.90;;;;;;5066309;28;20388;-68
2023/01/10 11:31:49;;;;;;;17.75;4.35;;;7.90;99.90;;;;;;5069340;28;20050;-69
2023/01/10 11:34:32;;;;;;;16.85;3.10;;;8.00;99.90;;;;;;5074870;28;20031;-68
2023/01/10 11:37:03;;;;;;;23.42;4.03;;;7.90;99.90;;;;;;5076804;28;20025;-68
2023/01/10 11:39:30;;;;;;;;;;;7.90;99.90;;;;;;5068576;28;20108;-69
2023/01/10 11:41:58;;;;;;;24.88;4.85;;;7.90;99.90;;;;;;5063198;28;19909;-69
2023/01/10 11:44:29;;;;;;;20.98;3.28;;;7.90;99.90;;;;;;5069899;28;20032;-69
2023/01/10 11:47:04;;;;;;;13.43;3.78;;;7.90;99.90;;;;;;5071167;28;20024;-68
2023/01/10 11:49:42;;;;;;;14.45;2.63;;;7.80;99.90;;;;;;5063177;28;20028;-68
2023/01/10 11:52:28;;;;;;;17.00;4.10;;;7.80;99.90;;;;;;5069535;28;20025;-69
2023/01/10 11:54:59;;;;;;;21.58;4.15;;;7.80;99.90;;;;;;5057177;28;20025;-69
2023/01/10 11:57:30;;;;;;;18.95;3.70;;;7.80;99.90;;;;;;5061415;28;20047;-70
2023/01/10 12:00:06;;;;;;;16.50;3.92;;;7.80;99.90;;;;;;5066287;28;20081;-68
2023/01/10 12:02:51;;;;;;;15.82;3.38;;;7.80;99.90;;;;;;5069511;28;20079;-69
2023/01/10 12:05:22;;;;;;;15.23;2.97;;;7.80;99.90;;;;;;5069872;28;20021;-68
2023/01/10 12:08:05;;;;;;;15.48;3.50;;;7.80;99.90;;;;;;5067833;28;20024;-68
2023/01/10 12:10:32;;;;;;;24.75;4.68;;;7.80;99.90;;;;;;5068337;28;20684;-68
2023/01/10 12:13:06;;;;;;;16.63;3.45;;;7.80;99.90;;;;;;5066573;28;20460;-69
2023/01/10 12:15:33;;;;;;;14.23;3.45;;;7.80;99.90;;;;;;5068204;28;20535;-68
2023/01/10 12:18:02;;;;;;;15.48;3.08;;;7.90;99.90;;;;;;5068621;28;20033;-68
2023/01/10 12:20:31;;;;;;;15.05;2.85;;;7.90;99.90;;;;;;5068285;28;20020;-68
2023/01/10 12:23:15;;;;;;;16.52;3.75;;;7.90;99.90;;;;;;5070315;28;20116;-69
2023/01/10 12:25:42;;;;;;;21.98;3.95;;;7.90;99.90;;;;;;5060204;28;20056;-70
2023/01/10 12:28:22;;;;;;;16.23;3.47;;;7.80;99.90;;;;;;5072184;28;20033;-69
2023/01/10 12:30:50;;;;;;;17.77;3.85;;;7.90;99.90;;;;;;5070964;28;20029;-68
2023/01/10 12:33:21;;;;;;;17.52;3.03;;;7.90;99.90;;;;;;5073604;28;20032;-68
2023/01/10 12:35:49;;;;;;;18.90;2.92;;;7.90;99.90;;;;;;5070699;28;20531;-68
2023/01/10 12:44:09;;;;;;;15.57;3.28;;;7.90;99.90;;;;;;5074335;28;20095;-69
2023/01/10 12:44:10;;;;;;;14.98;3.15;;;7.90;99.90;;;;;;5073374;28;20038;-69
2023/01/10 12:46:43;;;;;;;14.85;3.53;;;7.90;99.90;;;;;;5067124;28;20031;-70
2023/01/10 12:49:20;;;;;;;19.27;4.13;;;7.90;99.90;;;;;;5068294;28;20098;-69
2023/01/10 12:51:48;;;;;;;16.70;3.30;;;7.90;99.90;;;;;;5068665;28;20037;-68
2023/01/10 12:54:23;;;;;;;27.05;3.70;;;7.90;99.90;;;;;;5071307;28;20051;-69
2023/01/10 12:56:51;;;;;;;18.35;3.65;;;7.90;99.90;;;;;;5067505;28;20032;-68
2023/01/10 12:59:25;;;;;;;15.15;4.20;;;7.90;99.90;;;;;;5069104;28;20035;-68
2023/01/10 13:01:55;;;;;;;50.97;17.90;;;7.90;99.90;;;;;;5064220;28;20023;-68
2023/01/10 13:04:25;;;;;;;279.00;213.90;;;7.90;99.90;;;;;;5063655;28;20476;-68
2023/01/10 13:06:52;;;;;;;452.85;222.18;;;7.90;99.90;;;;;;5064695;28;20024;-70
2023/01/10 13:09:21;;;;;;;274.48;127.72;;;7.90;99.90;;;;;;5064720;28;20036;-70
2023/01/10 13:12:16;;;;;;;762.38;355.75;;;8.00;99.90;;;;;;5062174;28;20032;-70
2023/01/10 13:15:11;;;;;;;84.10;41.30;;;8.00;99.90;;;;;;5063777;28;20036;-69
2023/01/10 13:17:48;;;;;;;59.75;34.22;;;8.00;99.90;;;;;;5047621;28;20059;-68